createdAt,value
2018-03-17T00:00:16.733Z,8
2018-03-17T00:01:06.383Z,8
2018-03-17T00:01:57.141Z,8
2018-03-17T00:02:46.717Z,8
2018-03-17T00:03:36.564Z,8
2018-03-17T00:04:27.018Z,7.9
2018-03-17T00:05:17.365Z,7.9
2018-03-17T00:06:07.133Z,7.9
2018-03-17T00:06:57.498Z,7.9
2018-03-17T00:07:47.247Z,7.9
2018-03-17T00:08:37.310Z,7.9
2018-03-17T00:09:27.662Z,7.9
2018-03-17T00:10:17.717Z,7.9
2018-03-17T00:11:07.771Z,7.9
2018-03-17T00:11:57.828Z,7.9
2018-03-17T00:12:47.886Z,7.9
2018-03-17T00:13:37.937Z,7.9
2018-03-17T00:14:28.042Z,7.9
2018-03-17T00:15:18.067Z,7.9
2018-03-17T00:16:07.832Z,7.9
2018-03-17T00:16:57.900Z,7.9
2018-03-17T00:17:47.680Z,7.9
2018-03-17T00:18:38.119Z,7.9
2018-03-17T00:19:28.094Z,7.9
2018-03-17T00:20:18.440Z,7.9
2018-03-17T00:21:08.012Z,7.8
2018-03-17T00:21:58.070Z,7.8
2018-03-17T00:22:48.045Z,7.8
2018-03-17T00:23:38.362Z,7.8
2018-03-17T00:24:28.739Z,7.8
2018-03-17T00:25:18.794Z,7.8
2018-03-17T00:26:08.373Z,7.8
2018-03-17T00:26:58.215Z,7.8
2018-03-17T00:27:48.967Z,7.8
2018-03-17T00:28:39.020Z,7.8
2018-03-17T00:29:28.507Z,7.8
2018-03-17T00:30:18.864Z,7.8
2018-03-17T00:31:08.617Z,7.8
2018-03-17T00:31:58.779Z,7.8
2018-03-17T00:32:49.037Z,7.8
2018-03-17T00:33:39.375Z,7.8
2018-03-17T00:34:29.151Z,7.8
2018-03-17T00:35:19.211Z,7.8
2018-03-17T00:36:09.339Z,7.7
2018-03-17T00:36:59.639Z,7.8
2018-03-17T00:37:49.687Z,7.7
2018-03-17T00:38:39.238Z,7.7
2018-03-17T00:39:29.401Z,7.7
2018-03-17T00:40:19.559Z,7.7
2018-03-17T00:41:09.622Z,7.7
2018-03-17T00:41:59.666Z,7.7
2018-03-17T00:42:49.543Z,7.7
2018-03-17T00:43:39.511Z,7.7
2018-03-17T00:44:29.661Z,7.6
2018-03-17T00:45:19.630Z,7.6
2018-03-17T00:46:09.691Z,7.7
2018-03-17T00:47:00.318Z,7.6
2018-03-17T00:47:50.394Z,7.6
2018-03-17T00:48:40.423Z,7.6
2018-03-17T00:49:30.495Z,7.6
2018-03-17T00:50:19.988Z,7.6
2018-03-17T00:51:10.132Z,7.6
2018-03-17T00:52:00.188Z,7.6
2018-03-17T00:52:50.715Z,7.6
2018-03-17T00:53:40.505Z,7.6
2018-03-17T00:54:30.572Z,7.6
2018-03-17T00:55:20.630Z,7.6
2018-03-17T00:56:10.825Z,7.6
2018-03-17T00:57:00.844Z,7.5
2018-03-17T00:57:50.903Z,7.5
2018-03-17T00:58:40.575Z,7.5
2018-03-17T00:59:30.520Z,7.5
2018-03-17T01:00:20.988Z,7.5
2018-03-17T01:01:11.324Z,7.5
2018-03-17T01:02:00.807Z,7.4
2018-03-17T01:02:51.460Z,7.4
2018-03-17T01:03:41.510Z,7.4
2018-03-17T01:04:31.275Z,7.4
2018-03-17T01:05:21.619Z,7.4
2018-03-17T01:06:11.497Z,7.4
2018-03-17T01:07:01.737Z,7.4
2018-03-17T01:07:51.804Z,7.4
2018-03-17T01:08:41.569Z,7.4
2018-03-17T01:09:31.731Z,7.4
2018-03-17T01:10:22.022Z,7.3
2018-03-17T01:11:12.055Z,7.3
2018-03-17T01:12:01.807Z,7.4
2018-03-17T01:12:51.954Z,7.3
2018-03-17T01:13:41.634Z,7.3
2018-03-17T01:14:31.692Z,7.3
2018-03-17T01:15:22.130Z,7.3
2018-03-17T01:16:12.399Z,7.3
2018-03-17T01:17:02.154Z,7.3
2018-03-17T01:17:52.019Z,7.3
2018-03-17T01:18:42.556Z,7.3
2018-03-17T01:19:32.439Z,7.3
2018-03-17T01:20:22.098Z,7.3
2018-03-17T01:21:12.738Z,7.2
2018-03-17T01:22:02.498Z,7.2
2018-03-17T01:22:52.561Z,7.2
2018-03-17T01:23:42.431Z,7.3
2018-03-17T01:24:32.776Z,7.2
2018-03-17T01:25:23.033Z,7.2
2018-03-17T01:26:12.810Z,7.1
2018-03-17T01:27:02.757Z,7.1
2018-03-17T01:27:53.212Z,7.1
2018-03-17T01:28:42.700Z,7.1
2018-03-17T01:29:32.756Z,7.1
2018-03-17T01:30:23.113Z,7.1
2018-03-17T01:31:13.436Z,7.1
2018-03-17T01:32:02.929Z,7.1
2018-03-17T01:32:53.563Z,7.1
2018-03-17T01:33:43.334Z,7.1
2018-03-17T01:34:33.117Z,7
2018-03-17T01:35:23.263Z,7
2018-03-17T01:36:13.602Z,7
2018-03-17T01:37:03.173Z,7
2018-03-17T01:37:53.355Z,7
2018-03-17T01:38:43.960Z,6.9
2018-03-17T01:39:33.744Z,6.9
2018-03-17T01:40:23.812Z,6.9
2018-03-17T01:41:13.889Z,6.9
2018-03-17T01:42:03.930Z,6.9
2018-03-17T01:42:54.271Z,6.9
2018-03-17T01:43:44.364Z,6.9
2018-03-17T01:44:34.106Z,6.8
2018-03-17T01:45:24.173Z,6.9
2018-03-17T01:46:14.032Z,6.8
2018-03-17T01:47:04.288Z,6.8
2018-03-17T01:47:54.345Z,6.8
2018-03-17T01:48:44.107Z,6.8
2018-03-17T01:49:34.779Z,6.8
2018-03-17T01:50:24.816Z,6.8
2018-03-17T01:51:14.859Z,6.8
2018-03-17T01:52:04.911Z,6.7
2018-03-17T01:52:54.983Z,6.7
2018-03-17T01:53:45.113Z,6.7
2018-03-17T01:54:35.081Z,6.7
2018-03-17T01:55:24.859Z,6.7
2018-03-17T01:56:15.226Z,6.6
2018-03-17T01:57:04.998Z,6.6
2018-03-17T01:57:55.359Z,6.6
2018-03-17T01:58:45.099Z,6.6
2018-03-17T01:59:35.466Z,6.6
2018-03-17T02:00:25.249Z,6.6
2018-03-17T02:01:15.005Z,6.6
2018-03-17T02:02:05.631Z,6.5
2018-03-17T02:02:55.399Z,6.5
2018-03-17T02:03:45.737Z,6.5
2018-03-17T02:04:35.796Z,6.5
2018-03-17T02:05:25.857Z,6.4
2018-03-17T02:06:15.917Z,6.4
2018-03-17T02:07:06.016Z,6.4
2018-03-17T02:07:56.029Z,6.4
2018-03-17T02:08:46.090Z,6.4
2018-03-17T02:09:36.164Z,6.4
2018-03-17T02:10:26.216Z,6.4
2018-03-17T02:11:16.315Z,6.4
2018-03-17T02:12:06.051Z,6.4
2018-03-17T02:12:56.388Z,6.4
2018-03-17T02:13:46.165Z,6.3
2018-03-17T02:14:36.498Z,6.3
2018-03-17T02:15:26.290Z,6.3
2018-03-17T02:16:16.636Z,6.3
2018-03-17T02:17:06.414Z,6.3
2018-03-17T02:17:56.751Z,6.3
2018-03-17T02:18:46.811Z,6.3
2018-03-17T02:19:36.601Z,6.3
2018-03-17T02:20:26.417Z,6.3
2018-03-17T02:21:16.423Z,6.3
2018-03-17T02:22:06.770Z,6.3
2018-03-17T02:22:57.118Z,6.3
2018-03-17T02:23:46.603Z,6.3
2018-03-17T02:24:36.960Z,6.3
2018-03-17T02:25:27.006Z,6.2
2018-03-17T02:26:17.078Z,6.2
2018-03-17T02:27:06.930Z,6.2
2018-03-17T02:27:56.900Z,6.2
2018-03-17T02:28:47.510Z,6.2
2018-03-17T02:29:37.573Z,6.1
2018-03-17T02:30:27.649Z,6.2
2018-03-17T02:31:17.720Z,6.2
2018-03-17T02:32:07.475Z,6.1
2018-03-17T02:32:57.552Z,6.1
2018-03-17T02:33:47.908Z,6.1
2018-03-17T02:34:37.924Z,6.1
2018-03-17T02:35:28.077Z,6.1
2018-03-17T02:36:18.080Z,6.1
2018-03-17T02:37:08.111Z,6.1
2018-03-17T02:37:57.895Z,6.1
2018-03-17T02:38:48.230Z,6.1
2018-03-17T02:39:38.319Z,6.1
2018-03-17T02:40:28.359Z,6.1
2018-03-17T02:41:18.421Z,6.1
2018-03-17T02:42:08.193Z,6.1
2018-03-17T02:42:58.542Z,6.1
2018-03-17T02:43:48.592Z,6.1
2018-03-17T02:44:38.664Z,6
2018-03-17T02:45:28.717Z,6
2018-03-17T02:46:18.782Z,6
2018-03-17T02:47:08.532Z,6
2018-03-17T02:47:58.892Z,6
2018-03-17T02:48:48.655Z,6
2018-03-17T02:49:38.442Z,6
2018-03-17T02:50:29.071Z,6
2018-03-17T02:51:19.184Z,6
2018-03-17T02:52:09.189Z,6
2018-03-17T02:52:59.265Z,6
2018-03-17T02:53:49.332Z,5.9
2018-03-17T02:54:38.787Z,5.9
2018-03-17T02:55:29.424Z,5.9
2018-03-17T02:56:19.476Z,5.9
2018-03-17T02:57:09.251Z,5.9
2018-03-17T02:57:59.601Z,5.9
2018-03-17T02:58:49.684Z,5.9
2018-03-17T02:59:39.732Z,5.9
2018-03-17T03:00:29.785Z,5.9
2018-03-17T03:01:19.894Z,5.9
2018-03-17T03:02:09.892Z,5.9
2018-03-17T03:02:59.946Z,5.9
2018-03-17T03:03:50.019Z,5.9
2018-03-17T03:04:40.077Z,5.9
2018-03-17T03:05:30.160Z,5.9
2018-03-17T03:06:20.187Z,5.9
2018-03-17T03:07:10.245Z,5.8
2018-03-17T03:07:59.744Z,5.8
2018-03-17T03:08:50.370Z,5.8
2018-03-17T03:09:40.415Z,5.8
2018-03-17T03:10:29.908Z,5.8
2018-03-17T03:11:20.529Z,5.8
2018-03-17T03:12:10.319Z,5.8
2018-03-17T03:13:00.645Z,5.8
2018-03-17T03:13:50.718Z,5.8
2018-03-17T03:14:40.780Z,5.8
2018-03-17T03:15:30.827Z,5.8
2018-03-17T03:16:20.695Z,5.8
2018-03-17T03:17:10.981Z,5.8
2018-03-17T03:18:00.739Z,5.8
2018-03-17T03:18:51.090Z,5.8
2018-03-17T03:19:41.130Z,5.7
2018-03-17T03:20:31.178Z,5.7
2018-03-17T03:21:21.283Z,5.7
2018-03-17T03:22:11.317Z,5.7
2018-03-17T03:23:01.372Z,5.7
2018-03-17T03:23:51.442Z,5.7
2018-03-17T03:24:41.204Z,5.7
2018-03-17T03:25:31.259Z,5.7
2018-03-17T03:26:21.340Z,5.7
2018-03-17T03:27:11.377Z,5.7
2018-03-17T03:28:01.238Z,5.6
2018-03-17T03:28:51.507Z,5.6
2018-03-17T03:29:41.565Z,5.6
2018-03-17T03:30:31.629Z,5.6
2018-03-17T03:31:21.678Z,5.6
2018-03-17T03:32:11.737Z,5.6
2018-03-17T03:33:01.520Z,5.6
2018-03-17T03:33:51.854Z,5.6
2018-03-17T03:34:42.183Z,5.6
2018-03-17T03:35:32.269Z,5.6
2018-03-17T03:36:22.153Z,5.6
2018-03-17T03:37:11.819Z,5.6
2018-03-17T03:38:02.239Z,5.6
2018-03-17T03:38:51.923Z,5.6
2018-03-17T03:39:42.546Z,5.6
2018-03-17T03:40:32.341Z,5.6
2018-03-17T03:41:22.289Z,5.6
2018-03-17T03:42:12.158Z,5.5
2018-03-17T03:43:02.602Z,5.5
2018-03-17T03:43:52.577Z,5.5
2018-03-17T03:44:42.336Z,5.5
2018-03-17T03:45:32.668Z,5.5
2018-03-17T03:46:23.046Z,5.5
2018-03-17T03:47:12.511Z,5.5
2018-03-17T03:48:02.879Z,5.5
2018-03-17T03:48:52.932Z,5.5
2018-03-17T03:49:43.258Z,5.4
2018-03-17T03:50:33.311Z,5.4
2018-03-17T03:51:23.091Z,5.4
2018-03-17T03:52:13.451Z,5.4
2018-03-17T03:53:03.526Z,5.4
2018-03-17T03:53:53.545Z,5.4
2018-03-17T03:54:43.048Z,5.4
2018-03-17T03:55:33.370Z,5.4
2018-03-17T03:56:23.733Z,5.4
2018-03-17T03:57:13.500Z,5.4
2018-03-17T03:58:03.864Z,5.4
2018-03-17T03:58:53.898Z,5.4
2018-03-17T03:59:43.673Z,5.4
2018-03-17T04:00:34.026Z,5.4
2018-03-17T04:01:24.110Z,5.4
2018-03-17T04:02:14.150Z,5.4
2018-03-17T04:03:03.712Z,5.4
2018-03-17T04:03:53.977Z,5.4
2018-03-17T04:04:44.335Z,5.4
2018-03-17T04:05:33.806Z,5.4
2018-03-17T04:06:23.861Z,5.4
2018-03-17T04:07:13.932Z,5.3
2018-03-17T04:08:04.270Z,5.4
2018-03-17T04:08:54.214Z,5.4
2018-03-17T04:09:44.684Z,5.4
2018-03-17T04:10:34.435Z,5.4
2018-03-17T04:11:24.224Z,5.3
2018-03-17T04:12:14.567Z,5.3
2018-03-17T04:13:04.906Z,5.4
2018-03-17T04:13:54.389Z,5.3
2018-03-17T04:14:44.267Z,5.3
2018-03-17T04:15:34.792Z,5.3
2018-03-17T04:16:25.167Z,5.3
2018-03-17T04:17:14.933Z,5.3
2018-03-17T04:18:05.270Z,5.3
2018-03-17T04:18:55.327Z,5.3
2018-03-17T04:19:45.386Z,5.3
2018-03-17T04:20:35.164Z,5.3
2018-03-17T04:21:25.486Z,5.3
2018-03-17T04:22:15.286Z,5.3
2018-03-17T04:23:05.611Z,5.3
2018-03-17T04:23:55.384Z,5.3
2018-03-17T04:24:45.249Z,5.3
2018-03-17T04:25:35.561Z,5.3
2018-03-17T04:26:25.843Z,5.2
2018-03-17T04:27:15.641Z,5.3
2018-03-17T04:28:05.681Z,5.3
2018-03-17T04:28:55.751Z,5.2
2018-03-17T04:29:45.811Z,5.3
2018-03-17T04:30:35.588Z,5.3
2018-03-17T04:31:25.156Z,5.2
2018-03-17T04:32:15.793Z,5.2
2018-03-17T04:33:06.133Z,5.2
2018-03-17T04:33:55.333Z,5.2
2018-03-17T04:34:45.983Z,5.2
2018-03-17T04:35:36.226Z,5.2
2018-03-17T04:36:26.000Z,5.1
2018-03-17T04:37:16.608Z,5.1
2018-03-17T04:38:06.405Z,5.2
2018-03-17T04:38:55.970Z,5.1
2018-03-17T04:39:46.512Z,5.1
2018-03-17T04:40:36.852Z,5.1
2018-03-17T04:41:26.638Z,5.1
2018-03-17T04:42:16.965Z,5.1
2018-03-17T04:43:06.267Z,5.1
2018-03-17T04:43:56.455Z,5.1
2018-03-17T04:44:47.164Z,5.1
2018-03-17T04:45:36.727Z,5.1
2018-03-17T04:46:26.982Z,5.1
2018-03-17T04:47:16.849Z,5.1
2018-03-17T04:48:06.900Z,5.1
2018-03-17T04:48:56.688Z,5.1
2018-03-17T04:49:47.220Z,5.1
2018-03-17T04:50:37.282Z,5.1
2018-03-17T04:51:26.853Z,5.1
2018-03-17T04:52:17.405Z,5
2018-03-17T04:53:07.064Z,5.1
2018-03-17T04:53:57.321Z,5.1
2018-03-17T04:54:47.376Z,5
2018-03-17T04:55:37.639Z,5
2018-03-17T04:56:27.301Z,5.1
2018-03-17T04:57:17.265Z,5
2018-03-17T04:58:07.821Z,5.1
2018-03-17T04:58:57.872Z,5
2018-03-17T04:59:47.649Z,5
2018-03-17T05:00:37.791Z,5
2018-03-17T05:01:28.354Z,5
2018-03-17T05:02:17.910Z,5
2018-03-17T05:03:07.668Z,5
2018-03-17T05:03:57.456Z,5
2018-03-17T05:04:48.074Z,5
2018-03-17T05:05:38.146Z,4.9
2018-03-17T05:06:27.633Z,5
2018-03-17T05:07:18.257Z,5
2018-03-17T05:08:08.320Z,5
2018-03-17T05:08:58.188Z,5
2018-03-17T05:09:47.873Z,5
2018-03-17T05:10:38.013Z,5
2018-03-17T05:11:28.263Z,5
2018-03-17T05:12:18.619Z,5
2018-03-17T05:13:08.402Z,5
2018-03-17T05:13:58.733Z,5
2018-03-17T05:14:48.798Z,5
2018-03-17T05:15:38.359Z,5
2018-03-17T05:16:28.928Z,5
2018-03-17T05:17:18.676Z,5
2018-03-17T05:18:08.547Z,5
2018-03-17T05:18:59.000Z,5
2018-03-17T05:19:48.860Z,5.1
2018-03-17T05:20:39.207Z,5.1
2018-03-17T05:21:28.981Z,5.1
2018-03-17T05:22:19.042Z,5.1
2018-03-17T05:23:09.382Z,5.1
2018-03-17T05:23:58.956Z,5.1
2018-03-17T05:24:49.985Z,5.1
2018-03-17T05:25:39.075Z,5.1
2018-03-17T05:26:29.322Z,5.1
2018-03-17T05:27:19.685Z,5.1
2018-03-17T05:28:09.753Z,5.1
2018-03-17T05:28:59.512Z,5.1
2018-03-17T05:29:49.570Z,5.2
2018-03-17T05:30:39.932Z,5.2
2018-03-17T05:31:29.685Z,5.3
2018-03-17T05:32:20.031Z,5.3
2018-03-17T05:33:09.786Z,5.3
2018-03-17T05:34:00.168Z,5.3
2018-03-17T05:34:49.931Z,5.3
2018-03-17T05:35:40.469Z,5.3
2018-03-17T05:36:30.044Z,5.4
2018-03-17T05:37:20.389Z,5.4
2018-03-17T05:38:10.159Z,5.4
2018-03-17T05:39:00.494Z,5.4
2018-03-17T05:39:50.272Z,5.4
2018-03-17T05:40:40.536Z,5.5
2018-03-17T05:41:30.391Z,5.5
2018-03-17T05:42:20.456Z,5.5
2018-03-17T05:43:10.310Z,5.6
2018-03-17T05:44:00.566Z,5.6
2018-03-17T05:44:50.638Z,5.6
2018-03-17T05:45:40.958Z,5.7
2018-03-17T05:46:31.035Z,5.7
2018-03-17T05:47:20.813Z,5.7
2018-03-17T05:48:11.169Z,5.8
2018-03-17T05:49:00.927Z,5.8
2018-03-17T05:49:51.264Z,5.9
2018-03-17T05:50:41.043Z,5.9
2018-03-17T05:51:30.821Z,5.9
2018-03-17T05:52:21.446Z,5.9
2018-03-17T05:53:11.503Z,6
2018-03-17T05:54:01.583Z,6.1
2018-03-17T05:54:51.046Z,6.1
2018-03-17T05:55:41.403Z,6.1
2018-03-17T05:56:31.448Z,6.2
2018-03-17T05:57:21.605Z,6.3
2018-03-17T05:58:11.290Z,6.3
2018-03-17T05:59:01.633Z,6.3
2018-03-17T05:59:51.782Z,6.3
2018-03-17T06:00:41.735Z,6.4
2018-03-17T06:01:32.082Z,6.4
2018-03-17T06:02:21.871Z,6.5
2018-03-17T06:03:11.914Z,6.5
2018-03-17T06:04:02.283Z,6.6
2018-03-17T06:04:52.315Z,6.6
2018-03-17T06:05:42.388Z,6.7
2018-03-17T06:06:32.149Z,6.8
2018-03-17T06:07:22.225Z,6.8
2018-03-17T06:08:12.293Z,6.9
2018-03-17T06:09:02.337Z,6.9
2018-03-17T06:09:52.685Z,7
2018-03-17T06:10:42.341Z,7.1
2018-03-17T06:11:32.792Z,7.1
2018-03-17T06:12:22.860Z,7.2
2018-03-17T06:13:12.908Z,7.3
2018-03-17T06:14:03.032Z,7.3
2018-03-17T06:14:53.035Z,7.3
2018-03-17T06:15:42.897Z,7.4
2018-03-17T06:16:32.587Z,7.4
2018-03-17T06:17:22.933Z,7.5
2018-03-17T06:18:13.262Z,7.6
2018-03-17T06:19:03.346Z,7.6
2018-03-17T06:19:53.108Z,7.8
2018-03-17T06:20:42.876Z,7.8
2018-03-17T06:21:32.936Z,7.9
2018-03-17T06:22:23.008Z,7.9
2018-03-17T06:23:13.626Z,7.9
2018-03-17T06:24:03.404Z,8
2018-03-17T06:24:53.736Z,8.1
2018-03-17T06:25:43.789Z,8.1
2018-03-17T06:26:33.863Z,8.2
2018-03-17T06:27:23.626Z,8.3
2018-03-17T06:28:13.997Z,8.4
2018-03-17T06:29:03.762Z,8.4
2018-03-17T06:29:54.108Z,8.6
2018-03-17T06:30:44.193Z,8.6
2018-03-17T06:31:34.213Z,8.7
2018-03-17T06:32:23.995Z,8.9
2018-03-17T06:33:14.140Z,8.9
2018-03-17T06:34:04.399Z,9
2018-03-17T06:34:54.463Z,9.1
2018-03-17T06:35:44.506Z,9.3
2018-03-17T06:36:34.561Z,9.3
2018-03-17T06:37:24.348Z,9.4
2018-03-17T06:38:14.687Z,9.6
2018-03-17T06:39:04.746Z,9.7
2018-03-17T06:39:54.366Z,9.8
2018-03-17T06:40:44.878Z,9.9
2018-03-17T06:41:34.929Z,10.1
2018-03-17T06:42:24.416Z,10.2
2018-03-17T06:43:14.774Z,10.3
2018-03-17T06:44:05.111Z,10.5
2018-03-17T06:44:55.187Z,10.6
2018-03-17T06:45:45.215Z,10.8
2018-03-17T06:46:35.268Z,11
2018-03-17T06:47:25.045Z,11.1
2018-03-17T06:48:15.885Z,11.3
2018-03-17T06:49:05.650Z,11.5
2018-03-17T06:49:55.364Z,11.7
2018-03-17T06:50:45.673Z,11.8
2018-03-17T06:51:35.823Z,12
2018-03-17T06:52:26.152Z,12.2
2018-03-17T06:53:16.243Z,12.4
2018-03-17T06:54:05.996Z,12.6
2018-03-17T06:54:56.367Z,11.3
2018-03-17T06:55:46.413Z,9.4
2018-03-17T06:56:36.485Z,13.1
2018-03-17T06:57:26.536Z,14.4
2018-03-17T06:58:16.582Z,14.4
2018-03-17T06:59:06.651Z,17.6
2018-03-17T06:59:56.697Z,19.7
2018-03-17T07:00:46.469Z,20.1
2018-03-17T07:01:36.539Z,19.2
2018-03-17T07:02:26.607Z,18
2018-03-17T07:03:16.677Z,17.2
2018-03-17T07:04:07.014Z,16.9
2018-03-17T07:04:56.586Z,16.9
2018-03-17T07:05:47.134Z,17.3
2018-03-17T07:06:36.611Z,17.6
2018-03-17T07:07:26.560Z,17.8
2018-03-17T07:08:17.024Z,17.8
2018-03-17T07:09:07.169Z,17.8
2018-03-17T07:09:57.436Z,17.6
2018-03-17T07:10:47.484Z,17.7
2018-03-17T07:11:37.264Z,17.8
2018-03-17T07:12:26.914Z,18
2018-03-17T07:13:17.657Z,18.3
2018-03-17T07:14:07.227Z,18.5
2018-03-17T07:14:57.491Z,18.8
2018-03-17T07:15:47.158Z,19
2018-03-17T07:16:37.886Z,19.1
2018-03-17T07:17:27.748Z,19.3
2018-03-17T07:18:17.737Z,19.4
2018-03-17T07:19:08.190Z,19.6
2018-03-17T07:19:58.145Z,19.8
2018-03-17T07:20:47.612Z,19.9
2018-03-17T07:21:38.256Z,20.1
2018-03-17T07:22:28.341Z,20.3
2018-03-17T07:23:18.083Z,20.4
2018-03-17T07:24:07.935Z,20.6
2018-03-17T07:24:58.293Z,20.8
2018-03-17T07:25:47.975Z,20.9
2018-03-17T07:27:28.101Z,21.3
2018-03-17T07:28:18.741Z,21.4
2018-03-17T07:29:08.295Z,21.6
2018-03-17T07:29:58.860Z,21.8
2018-03-17T07:30:48.636Z,21.9
2018-03-17T07:31:38.683Z,22.1
2018-03-17T07:32:29.058Z,22.3
2018-03-17T07:33:18.903Z,22.4
2018-03-17T07:34:08.859Z,22.6
2018-03-17T07:34:59.223Z,22.8
2018-03-17T07:35:48.982Z,23
2018-03-17T07:36:39.057Z,23.3
2018-03-17T07:37:29.092Z,23.5
2018-03-17T07:38:19.165Z,23.7
2018-03-17T07:39:08.728Z,23.9
2018-03-17T07:39:59.284Z,24
2018-03-17T07:40:49.637Z,24.2
2018-03-17T07:41:39.107Z,24.4
2018-03-17T07:42:29.740Z,24.6
2018-03-17T07:43:19.505Z,24.7
2018-03-17T07:44:09.570Z,24.9
2018-03-17T07:44:59.427Z,24.9
2018-03-17T07:45:49.452Z,25.1
2018-03-17T07:46:39.750Z,25.2
2018-03-17T07:47:29.622Z,25.4
2018-03-17T07:48:19.377Z,25.5
2018-03-17T07:49:09.780Z,25.7
2018-03-17T07:49:59.984Z,25.9
2018-03-17T07:50:50.330Z,26.1
2018-03-17T07:51:39.612Z,26.3
2018-03-17T07:52:30.462Z,26.5
2018-03-17T07:53:20.528Z,26.7
2018-03-17T07:54:10.286Z,26.9
2018-03-17T07:55:00.440Z,27.1
2018-03-17T07:55:50.415Z,27.4
2018-03-17T07:56:40.475Z,27.6
2018-03-17T07:58:20.679Z,28
2018-03-17T07:59:10.914Z,28.1
2018-03-17T08:00:00.702Z,28.3
2018-03-17T08:00:51.051Z,28.5
2018-03-17T08:01:40.839Z,28.8
2018-03-17T08:02:30.686Z,28.9
2018-03-17T08:03:20.942Z,28.9
2018-03-17T08:04:11.089Z,29
2018-03-17T08:05:01.082Z,29.2
2018-03-17T08:05:51.207Z,29.3
2018-03-17T08:06:41.179Z,29.5
2018-03-17T08:07:31.250Z,29.8
2018-03-17T08:08:21.099Z,29.9
2018-03-17T08:09:11.459Z,30.1
2018-03-17T08:10:01.231Z,30.3
2018-03-17T08:10:51.491Z,30.4
2018-03-17T08:11:41.246Z,30.7
2018-03-17T08:12:31.906Z,30.8
2018-03-17T08:13:21.469Z,30.9
2018-03-17T08:14:11.531Z,31.1
2018-03-17T08:15:01.802Z,31.4
2018-03-17T08:15:52.188Z,31.5
2018-03-17T08:16:42.187Z,31.7
2018-03-17T08:17:32.248Z,31.8
2018-03-17T08:18:22.295Z,31.7
2018-03-17T08:19:12.081Z,31.4
2018-03-17T08:20:02.133Z,31.6
2018-03-17T08:20:52.499Z,31.8
2018-03-17T08:21:42.286Z,32.1
2018-03-17T08:22:32.630Z,32.4
2018-03-17T08:23:22.669Z,32.6
2018-03-17T08:24:12.444Z,32.8
2018-03-17T08:25:02.782Z,32.9
2018-03-17T08:25:52.861Z,33.1
2018-03-17T08:26:42.618Z,33.3
2018-03-17T08:27:33.093Z,33.4
2018-03-17T08:28:23.036Z,33.6
2018-03-17T08:29:12.601Z,33.8
2018-03-17T08:30:02.970Z,33.9
2018-03-17T08:30:52.938Z,34
2018-03-17T08:31:42.972Z,34.3
2018-03-17T08:32:33.142Z,34.4
2018-03-17T08:33:23.400Z,34.6
2018-03-17T08:34:12.907Z,34.9
2018-03-17T08:35:03.025Z,35.1
2018-03-17T08:35:53.570Z,35.2
2018-03-17T08:36:43.360Z,35.4
2018-03-17T08:37:33.400Z,35.6
2018-03-17T08:38:23.457Z,35.8
2018-03-17T08:39:13.516Z,35.9
2018-03-17T08:40:03.665Z,36.1
2018-03-17T08:40:53.934Z,36.3
2018-03-17T08:41:43.984Z,36.4
2018-03-17T08:42:33.771Z,36.5
2018-03-17T08:43:23.327Z,36.4
2018-03-17T08:44:13.956Z,36.1
2018-03-17T08:45:03.929Z,35.8
2018-03-17T08:45:54.115Z,35.6
2018-03-17T08:46:43.756Z,35.6
2018-03-17T08:47:34.129Z,35.8
2018-03-17T08:48:24.467Z,36.2
2018-03-17T08:49:13.946Z,36.7
2018-03-17T08:50:04.306Z,36.9
2018-03-17T08:50:54.365Z,36.8
2018-03-17T08:51:44.716Z,36.4
2018-03-17T08:52:34.464Z,36.2
2018-03-17T08:53:24.813Z,36.2
2018-03-17T08:54:14.304Z,36.5
2018-03-17T08:55:04.338Z,37.1
2018-03-17T08:55:54.801Z,37.6
2018-03-17T08:56:44.575Z,38
2018-03-17T08:57:34.832Z,38.3
2018-03-17T08:58:24.887Z,38.4
2018-03-17T08:59:14.961Z,38.6
2018-03-17T09:00:05.008Z,38.7
2018-03-17T09:00:55.354Z,38.9
2018-03-17T09:01:45.136Z,39.1
2018-03-17T09:02:35.189Z,39.2
2018-03-17T09:03:25.543Z,39.3
2018-03-17T09:04:15.595Z,39.4
2018-03-17T09:05:05.688Z,39.5
2018-03-17T09:05:55.710Z,39.8
2018-03-17T09:06:45.769Z,39.9
2018-03-17T09:07:35.820Z,40.1
2018-03-17T09:08:25.632Z,40.3
2018-03-17T09:09:15.679Z,40.4
2018-03-17T09:10:06.034Z,40.6
2018-03-17T09:10:56.078Z,40.7
2018-03-17T09:11:45.858Z,40.8
2018-03-17T09:12:35.930Z,40.8
2018-03-17T09:13:26.250Z,40.7
2018-03-17T09:14:16.318Z,40.6
2018-03-17T09:15:06.383Z,40.3
2018-03-17T09:15:56.457Z,40.1
2018-03-17T09:16:46.506Z,39.9
2018-03-17T09:17:36.568Z,39.9
2018-03-17T09:18:26.623Z,39.8
2018-03-17T09:19:16.674Z,39.8
2018-03-17T09:20:06.780Z,39.8
2018-03-17T09:20:56.819Z,39.7
2018-03-17T09:21:46.885Z,39.6
2018-03-17T09:22:36.747Z,39.6
2018-03-17T09:23:26.801Z,39.5
2018-03-17T09:24:17.187Z,39.3
2018-03-17T09:25:06.827Z,38.9
2018-03-17T09:25:57.166Z,38.8
2018-03-17T09:26:46.459Z,38.8
2018-03-17T09:27:37.023Z,38.7
2018-03-17T09:28:27.074Z,38.7
2018-03-17T09:29:17.133Z,38.6
2018-03-17T09:30:07.173Z,38.5
2018-03-17T09:30:57.601Z,38.4
2018-03-17T09:31:47.607Z,38.4
2018-03-17T09:32:37.081Z,38.4
2018-03-17T09:33:27.714Z,38.4
2018-03-17T09:34:17.204Z,38.1
2018-03-17T09:35:07.551Z,37.3
2018-03-17T09:35:57.619Z,36.6
2018-03-17T09:36:47.678Z,36
2018-03-17T09:37:37.441Z,35.5
2018-03-17T09:38:28.089Z,35.4
2018-03-17T09:39:17.956Z,35.1
2018-03-17T09:40:07.339Z,34.6
2018-03-17T09:40:57.967Z,34
2018-03-17T09:41:48.314Z,33.4
2018-03-17T09:42:38.188Z,33.3
2018-03-17T09:43:27.958Z,33.4
2018-03-17T09:44:18.223Z,33.8
2018-03-17T09:45:08.548Z,34.1
2018-03-17T09:45:58.332Z,34.3
2018-03-17T09:46:48.489Z,34.4
2018-03-17T09:47:38.457Z,34.6
2018-03-17T09:48:28.510Z,34.8
2018-03-17T09:49:18.589Z,35
2018-03-17T09:50:08.623Z,35.2
2018-03-17T09:50:58.987Z,35.3
2018-03-17T09:51:48.750Z,35.5
2018-03-17T09:52:38.613Z,35.7
2018-03-17T09:53:28.679Z,35.9
2018-03-17T09:54:18.741Z,36.1
2018-03-17T09:55:08.981Z,36.4
2018-03-17T09:55:59.068Z,36.6
2018-03-17T09:56:49.106Z,36.8
2018-03-17T09:57:39.480Z,36.9
2018-03-17T09:58:29.525Z,37
2018-03-17T09:59:19.585Z,37.2
2018-03-17T10:00:08.870Z,37.2
2018-03-17T10:00:59.427Z,37.2
2018-03-17T10:01:49.188Z,37.2
2018-03-17T10:02:39.640Z,37.3
2018-03-17T10:03:29.877Z,37.4
2018-03-17T10:04:19.645Z,37.6
2018-03-17T10:05:09.720Z,37.8
2018-03-17T10:05:59.584Z,38.1
2018-03-17T10:06:49.940Z,38.5
2018-03-17T10:07:39.901Z,38.9
2018-03-17T10:08:30.231Z,39.4
2018-03-17T10:09:20.032Z,39.8
2018-03-17T10:10:10.156Z,40
2018-03-17T10:11:00.424Z,40.2
2018-03-17T10:11:50.514Z,40.3
2018-03-17T10:12:40.057Z,40.3
2018-03-17T10:13:30.324Z,40.4
2018-03-17T10:14:20.698Z,40.6
2018-03-17T10:15:10.732Z,40.7
2018-03-17T10:16:00.582Z,40.6
2018-03-17T10:16:50.564Z,40.4
2018-03-17T10:17:40.702Z,40.2
2018-03-17T10:18:30.702Z,40.1
2018-03-17T10:19:20.757Z,39.9
2018-03-17T10:20:10.807Z,39.9
2018-03-17T10:21:00.867Z,39.9
2018-03-17T10:21:51.219Z,40
2018-03-17T10:22:40.706Z,40.3
2018-03-17T10:23:31.103Z,40.8
2018-03-17T10:24:21.394Z,41.3
2018-03-17T10:25:11.168Z,41.4
2018-03-17T10:26:00.929Z,41.4
2018-03-17T10:26:51.306Z,41.1
2018-03-17T10:27:41.061Z,40.7
2018-03-17T10:28:31.407Z,40.5
2018-03-17T10:29:21.582Z,40.5
2018-03-17T10:30:11.241Z,40.6
2018-03-17T10:31:01.309Z,40.6
2018-03-17T10:31:51.362Z,40.9
2018-03-17T10:32:41.703Z,41.4
2018-03-17T10:33:31.086Z,41.9
2018-03-17T10:34:21.859Z,42.3
2018-03-17T10:35:12.186Z,42.7
2018-03-17T10:36:01.711Z,42.9
2018-03-17T10:36:52.344Z,43.1
2018-03-17T10:37:42.057Z,43.3
2018-03-17T10:38:32.119Z,43.4
2018-03-17T10:39:21.996Z,43.6
2018-03-17T10:40:11.476Z,43.8
2018-03-17T10:41:02.117Z,44
2018-03-17T10:41:52.383Z,44.1
2018-03-17T10:42:42.150Z,44.2
2018-03-17T10:43:32.307Z,44.3
2018-03-17T10:44:22.555Z,44.4
2018-03-17T10:45:12.613Z,44.4
2018-03-17T10:46:02.387Z,44.6
2018-03-17T10:46:52.748Z,44.7
2018-03-17T10:47:42.816Z,44.7
2018-03-17T10:48:32.566Z,44.8
2018-03-17T10:49:22.932Z,44.9
2018-03-17T10:50:12.992Z,44.9
2018-03-17T10:51:03.335Z,45
2018-03-17T10:51:52.821Z,45.1
2018-03-17T10:52:43.453Z,45.3
2018-03-17T10:53:32.942Z,45.3
2018-03-17T10:54:23.562Z,45.4
2018-03-17T10:55:13.355Z,45.6
2018-03-17T10:56:03.123Z,45.7
2018-03-17T10:56:53.762Z,45.8
2018-03-17T10:57:43.519Z,45.8
2018-03-17T10:58:33.004Z,45.9
2018-03-17T10:59:23.652Z,45.9
2018-03-17T11:00:13.462Z,45.9
2018-03-17T11:01:03.784Z,46
2018-03-17T11:01:53.522Z,46
2018-03-17T11:02:44.176Z,46.1
2018-03-17T11:03:34.239Z,46.2
2018-03-17T11:04:24.023Z,46.4
2018-03-17T11:05:13.786Z,46.4
2018-03-17T11:06:04.401Z,46.6
2018-03-17T11:06:54.191Z,46.7
2018-03-17T11:07:44.056Z,46.8
2018-03-17T11:08:34.317Z,46.9
2018-03-17T11:09:23.974Z,47
2018-03-17T11:10:14.441Z,47.1
2018-03-17T11:11:04.785Z,47.3
2018-03-17T11:11:54.554Z,47.3
2018-03-17T11:12:44.696Z,47.5
2018-03-17T11:13:34.783Z,47.7
2018-03-17T11:14:24.260Z,47.8
2018-03-17T11:15:15.088Z,47.9
2018-03-17T11:16:05.156Z,48.1
2018-03-17T11:16:55.423Z,48.3
2018-03-17T11:17:44.790Z,48.4
2018-03-17T11:18:35.321Z,48.5
2018-03-17T11:19:25.100Z,48.6
2018-03-17T11:20:14.970Z,48.7
2018-03-17T11:21:05.238Z,48.7
2018-03-17T11:21:55.559Z,48.6
2018-03-17T11:22:45.620Z,48.3
2018-03-17T11:23:35.423Z,47.6
2018-03-17T11:24:25.783Z,46.7
2018-03-17T11:25:15.851Z,45.8